createdAt,value
2018-06-29T00:00:27.146Z,56.50
2018-06-29T00:02:55.246Z,56.60
2018-06-29T00:05:23.467Z,56.90
2018-06-29T00:07:51.633Z,57.30
2018-06-29T00:10:21.063Z,57.30
2018-06-29T00:12:49.358Z,57.80
2018-06-29T00:15:17.486Z,57.70
2018-06-29T00:17:45.669Z,56.80
2018-06-29T00:20:13.763Z,57.30
2018-06-29T00:22:41.852Z,57.70
2018-06-29T00:25:09.952Z,57.90
2018-06-29T00:27:38.060Z,58.00
2018-06-29T00:30:06.314Z,58.40
2018-06-29T00:32:34.495Z,58.50
2018-06-29T00:35:02.626Z,58.60
2018-06-29T00:37:30.748Z,58.90
2018-06-29T00:39:58.835Z,58.90
2018-06-29T00:42:27.034Z,58.10
2018-06-29T00:44:55.139Z,58.50
2018-06-29T00:47:23.268Z,59.00
2018-06-29T00:49:51.388Z,58.90
2018-06-29T00:52:19.484Z,58.70
2018-06-29T00:54:47.575Z,58.60
2018-06-29T00:57:15.718Z,58.20
2018-06-29T00:59:43.828Z,58.50
2018-06-29T01:02:11.964Z,58.20
2018-06-29T01:04:40.119Z,58.10
2018-06-29T01:07:08.307Z,58.60
2018-06-29T01:09:36.424Z,58.50
2018-06-29T01:12:04.508Z,58.20
2018-06-29T01:14:32.620Z,58.30
2018-06-29T01:17:00.738Z,58.70
2018-06-29T01:19:28.912Z,58.50
2018-06-29T01:21:57.059Z,58.10
2018-06-29T01:24:25.180Z,58.20
2018-06-29T01:29:21.384Z,58.50
2018-06-29T01:31:49.521Z,58.70
2018-06-29T01:34:17.659Z,58.50
2018-06-29T01:36:45.789Z,58.60
2018-06-29T01:39:13.879Z,58.20
2018-06-29T01:41:41.980Z,58.40
2018-06-29T01:44:10.088Z,58.80
2018-06-29T01:46:38.200Z,58.80
2018-06-29T01:49:06.336Z,59.00
2018-06-29T01:51:34.447Z,59.20
2018-06-29T01:54:02.555Z,59.00
2018-06-29T01:56:30.657Z,59.20
2018-06-29T01:58:58.768Z,59.00
2018-06-29T02:01:26.846Z,58.90
2018-06-29T02:03:54.971Z,59.00
2018-06-29T02:06:23.067Z,59.20
2018-06-29T02:08:51.227Z,59.40
2018-06-29T02:11:19.343Z,59.20
2018-06-29T02:13:47.463Z,58.80
2018-06-29T02:16:15.589Z,58.80
2018-06-29T02:18:43.735Z,58.30
2018-06-29T02:21:11.861Z,58.40
2018-06-29T02:23:39.979Z,58.70
2018-06-29T02:26:08.112Z,58.90
2018-06-29T02:28:36.255Z,58.70
2018-06-29T02:31:04.372Z,58.80
2018-06-29T02:33:32.495Z,59.00
2018-06-29T02:36:00.602Z,59.20
2018-06-29T02:38:28.710Z,59.00
2018-06-29T02:40:56.906Z,59.10
2018-06-29T02:43:25.077Z,58.80
2018-06-29T02:45:53.181Z,59.10
2018-06-29T02:48:21.312Z,59.40
2018-06-29T02:50:49.444Z,59.00
2018-06-29T02:53:17.567Z,58.80
2018-06-29T02:55:45.693Z,58.30
2018-06-29T02:58:13.810Z,59.00
2018-06-29T03:00:41.924Z,59.00
2018-06-29T03:03:10.039Z,59.00
2018-06-29T03:05:38.199Z,59.00
2018-06-29T03:08:06.335Z,59.00
2018-06-29T03:10:34.449Z,59.00
2018-06-29T03:13:02.595Z,59.20
2018-06-29T03:17:58.747Z,59.70
2018-06-29T03:20:26.867Z,59.40
2018-06-29T03:22:55.220Z,59.10
2018-06-29T03:25:23.347Z,59.60
2018-06-29T03:27:51.591Z,59.50
2018-06-29T03:30:19.736Z,59.40
2018-06-29T03:32:47.848Z,59.00
2018-06-29T03:35:15.962Z,58.90
2018-06-29T03:37:44.065Z,59.00
2018-06-29T03:40:12.168Z,58.80
2018-06-29T03:42:40.247Z,58.60
2018-06-29T03:45:08.404Z,58.80
2018-06-29T03:47:36.515Z,58.50
2018-06-29T03:52:32.753Z,58.70
2018-06-29T03:55:00.910Z,59.30
2018-06-29T03:57:29.024Z,59.60
2018-06-29T03:59:57.180Z,59.10
2018-06-29T04:02:25.346Z,58.90
2018-06-29T04:04:53.459Z,58.60
2018-06-29T04:07:21.576Z,58.20
2018-06-29T04:09:49.707Z,57.80
2018-06-29T04:12:17.859Z,57.80
2018-06-29T04:14:45.954Z,58.20
2018-06-29T04:17:14.054Z,58.50
2018-06-29T04:19:42.191Z,58.30
2018-06-29T04:22:10.289Z,58.10
2018-06-29T04:24:38.457Z,57.80
2018-06-29T04:27:06.585Z,57.70
2018-06-29T04:34:30.528Z,57.20
2018-06-29T04:36:58.652Z,56.90
2018-06-29T04:39:26.799Z,57.40
2018-06-29T04:41:54.926Z,57.70
2018-06-29T04:44:23.088Z,58.00
2018-06-29T04:46:51.213Z,58.50
2018-06-29T04:49:19.360Z,58.60
2018-06-29T04:51:47.468Z,58.30
2018-06-29T04:54:16.521Z,57.60
2018-06-29T04:56:44.622Z,56.90
2018-06-29T04:59:12.815Z,57.50
2018-06-29T05:04:08.807Z,57.60
2018-06-29T05:06:36.894Z,57.80
2018-06-29T05:09:07.040Z,57.50
2018-06-29T05:11:35.391Z,57.30
2018-06-29T05:14:03.475Z,57.50
2018-06-29T05:16:31.653Z,57.60
2018-06-29T05:18:59.793Z,57.20
2018-06-29T05:23:55.770Z,57.60
2018-06-29T05:26:23.868Z,57.30
2018-06-29T05:28:52.256Z,57.10
2018-06-29T05:31:20.351Z,57.60
2018-06-29T05:33:48.463Z,57.00
2018-06-29T05:36:16.672Z,57.20
2018-06-29T05:38:44.770Z,57.40
2018-06-29T05:41:12.879Z,58.00
2018-06-29T05:43:40.976Z,57.70
2018-06-29T05:46:09.124Z,58.00
2018-06-29T05:48:37.244Z,57.70
2018-06-29T05:51:05.371Z,57.80
2018-06-29T05:53:33.463Z,57.30
2018-06-29T05:56:01.571Z,57.30
2018-06-29T05:58:29.664Z,57.50
2018-06-29T06:00:57.814Z,57.40
2018-06-29T06:05:53.803Z,56.10
2018-06-29T06:08:21.907Z,55.80
2018-06-29T06:10:49.998Z,56.60
2018-06-29T06:13:18.138Z,56.80
2018-06-29T06:15:46.216Z,56.70
2018-06-29T06:18:14.312Z,56.00
2018-06-29T06:20:42.441Z,57.00
2018-06-29T06:23:22.716Z,55.10
2018-06-29T06:25:50.854Z,55.20
2018-06-29T06:28:19.195Z,55.10
2018-06-29T06:30:47.297Z,55.60
2018-06-29T06:33:15.485Z,55.70
2018-06-29T06:38:11.628Z,55.00
2018-06-29T06:40:39.746Z,53.70
2018-06-29T06:43:07.921Z,53.50
2018-06-29T06:45:36.115Z,53.50
2018-06-29T06:50:32.151Z,53.40
2018-06-29T06:53:00.268Z,53.20
2018-06-29T06:55:28.398Z,51.90
2018-06-29T07:00:24.431Z,52.90
2018-06-29T07:02:52.536Z,52.60
2018-06-29T07:05:20.643Z,52.30
2018-06-29T07:07:48.736Z,51.80
2018-06-29T07:10:16.863Z,51.80
2018-06-29T07:12:45.003Z,51.60
2018-06-29T07:15:13.187Z,51.70
2018-06-29T07:17:41.267Z,52.00
2018-06-29T07:20:09.668Z,51.20
2018-06-29T07:22:37.847Z,50.70
2018-06-29T07:25:06.064Z,49.70
2018-06-29T07:27:34.520Z,49.90
2018-06-29T07:30:02.722Z,49.40
2018-06-29T07:32:30.835Z,49.40
2018-06-29T07:34:58.936Z,49.20
2018-06-29T07:37:27.047Z,48.90
2018-06-29T07:39:55.189Z,49.20
2018-06-29T07:42:23.318Z,49.30
2018-06-29T07:44:51.418Z,48.80
2018-06-29T07:47:19.525Z,48.80
2018-06-29T07:49:47.626Z,49.70
2018-06-29T07:52:15.714Z,49.00
2018-06-29T07:54:43.794Z,48.50
2018-06-29T07:57:11.898Z,48.60
2018-06-29T07:59:40.015Z,48.40
2018-06-29T08:02:08.175Z,47.70
2018-06-29T08:04:36.271Z,47.50
2018-06-29T08:07:04.403Z,47.40
2018-06-29T08:09:32.507Z,47.40
2018-06-29T08:14:28.513Z,46.00
2018-06-29T08:16:56.699Z,45.90
2018-06-29T08:19:24.715Z,45.80
2018-06-29T08:21:52.902Z,45.20
2018-06-29T08:24:21.090Z,45.10
2018-06-29T08:26:49.182Z,44.40
2018-06-29T08:29:17.259Z,43.50
2018-06-29T08:31:45.359Z,44.10
2018-06-29T08:34:13.438Z,43.60
2018-06-29T08:36:41.528Z,43.00
2018-06-29T08:39:09.857Z,43.00
2018-06-29T08:41:37.945Z,42.40
2018-06-29T08:44:06.231Z,42.50
2018-06-29T08:46:34.338Z,42.10
2018-06-29T08:49:02.458Z,42.50
2018-06-29T08:51:30.555Z,41.70
2018-06-29T08:53:58.654Z,41.40
2018-06-29T08:56:26.761Z,41.50
2018-06-29T08:58:55.330Z,41.40
2018-06-29T09:03:51.277Z,40.20
2018-06-29T09:06:19.376Z,40.10
2018-06-29T09:11:15.324Z,39.00
2018-06-29T09:13:43.411Z,38.50
2018-06-29T09:16:11.555Z,38.50
2018-06-29T09:18:39.644Z,38.80
2018-06-29T09:21:07.759Z,38.20
2018-06-29T09:23:35.863Z,37.80
2018-06-29T09:26:03.957Z,37.80
2018-06-29T09:30:59.980Z,37.50
2018-06-29T09:33:28.075Z,37.50
2018-06-29T09:35:56.210Z,37.50
2018-06-29T09:38:24.300Z,37.80
2018-06-29T09:40:52.386Z,37.60
2018-06-29T09:43:20.479Z,37.20
2018-06-29T09:45:48.566Z,37.50
2018-06-29T09:48:16.668Z,36.80
2018-06-29T09:50:44.759Z,36.20
2018-06-29T09:53:12.855Z,35.80
2018-06-29T10:00:36.703Z,34.80
2018-06-29T10:03:05.132Z,34.50
2018-06-29T10:05:33.244Z,34.40
2018-06-29T10:08:01.343Z,34.20
2018-06-29T10:10:29.444Z,33.90
2018-06-29T10:12:57.524Z,33.90
2018-06-29T10:15:25.638Z,33.60
2018-06-29T10:17:53.749Z,33.30
2018-06-29T10:20:21.848Z,33.10
2018-06-29T10:22:49.983Z,33.10
2018-06-29T10:25:18.117Z,33.20
2018-06-29T10:27:46.171Z,33.20
2018-06-29T10:30:14.279Z,33.00
2018-06-29T10:32:42.383Z,33.00
2018-06-29T10:35:10.496Z,32.80
2018-06-29T10:37:38.628Z,32.80
2018-06-29T10:40:06.719Z,32.80
2018-06-29T10:42:34.862Z,32.70
2018-06-29T10:45:03.147Z,32.60
2018-06-29T10:47:31.190Z,32.60
2018-06-29T10:49:59.428Z,32.50
2018-06-29T10:54:55.431Z,32.30
2018-06-29T10:57:23.805Z,32.00
2018-06-29T10:59:51.884Z,31.90
2018-06-29T11:02:20.021Z,31.90
2018-06-29T11:04:48.119Z,32.00
2018-06-29T11:07:16.223Z,32.10
2018-06-29T11:09:44.339Z,32.40
2018-06-29T11:12:12.436Z,32.70
2018-06-29T11:14:40.522Z,32.90
2018-06-29T11:17:08.591Z,33.50
2018-06-29T11:19:36.738Z,32.90
2018-06-29T11:22:04.828Z,33.10
2018-06-29T11:24:32.932Z,33.00
2018-06-29T11:27:01.015Z,32.60
2018-06-29T11:29:29.109Z,31.80
2018-06-29T11:31:57.261Z,31.50
2018-06-29T11:36:53.333Z,31.10
2018-06-29T11:41:49.220Z,27.50
2018-06-29T11:44:17.405Z,25.50
2018-06-29T11:46:45.448Z,23.90
2018-06-29T11:49:13.567Z,23.00
2018-06-29T11:51:41.630Z,22.20
2018-06-29T11:54:09.721Z,21.10
2018-06-29T11:56:37.812Z,20.30
2018-06-29T11:59:06.186Z,20.00
2018-06-29T12:01:34.259Z,19.90
2018-06-29T12:04:02.352Z,19.50
2018-06-29T12:06:30.426Z,19.40
2018-06-29T12:08:58.544Z,19.00
2018-06-29T12:16:22.393Z,18.30
2018-06-29T12:18:50.483Z,18.80
2018-06-29T12:21:18.575Z,18.10
2018-06-29T12:23:46.652Z,17.70
2018-06-29T12:26:14.771Z,17.60
2018-06-29T12:28:42.856Z,17.50
2018-06-29T12:31:10.962Z,17.50
2018-06-29T12:33:39.085Z,17.40
2018-06-29T12:36:07.164Z,17.40
2018-06-29T12:38:35.280Z,17.40
2018-06-29T12:41:03.496Z,17.30
2018-06-29T12:43:31.611Z,17.40
2018-06-29T12:45:59.791Z,17.30
2018-06-29T12:50:55.701Z,17.40
2018-06-29T12:53:23.883Z,17.50
2018-06-29T12:55:52.018Z,17.50
2018-06-29T12:58:20.051Z,17.60
2018-06-29T13:00:48.135Z,17.60
2018-06-29T13:03:16.230Z,17.60
2018-06-29T13:05:44.369Z,17.60
2018-06-29T13:08:12.428Z,17.70
2018-06-29T13:10:40.631Z,17.60
2018-06-29T13:13:08.733Z,17.60
2018-06-29T13:15:36.824Z,17.50
2018-06-29T13:18:04.916Z,17.40
2018-06-29T13:20:33.010Z,17.20
2018-06-29T13:23:01.103Z,16.90
2018-06-29T13:25:29.192Z,16.70
2018-06-29T13:30:25.155Z,16.30
2018-06-29T13:32:53.271Z,16.20
2018-06-29T13:35:21.367Z,16.30
2018-06-29T13:37:49.456Z,16.10
2018-06-29T13:42:45.415Z,15.80
2018-06-29T13:45:13.559Z,16.10
2018-06-29T13:47:41.680Z,15.90
2018-06-29T13:50:09.791Z,16.00
2018-06-29T13:52:37.911Z,16.20
2018-06-29T13:55:06.045Z,16.50
2018-06-29T13:57:34.164Z,16.60
2018-06-29T14:00:02.380Z,16.70
2018-06-29T14:02:30.533Z,16.70
2018-06-29T14:04:58.664Z,16.70
2018-06-29T14:07:26.755Z,17.00
2018-06-29T14:09:54.873Z,17.10
2018-06-29T14:12:23.052Z,17.10
2018-06-29T14:14:51.179Z,17.30
2018-06-29T14:17:19.287Z,17.70
2018-06-29T14:19:47.531Z,18.00
2018-06-29T14:22:15.634Z,18.60
2018-06-29T14:24:43.786Z,19.60
2018-06-29T14:27:11.935Z,20.80
2018-06-29T14:29:40.019Z,22.30
2018-06-29T14:32:08.140Z,23.90
2018-06-29T14:37:04.190Z,26.20
2018-06-29T14:39:32.321Z,27.00
2018-06-29T14:42:00.475Z,27.40
2018-06-29T14:44:28.565Z,27.70
2018-06-29T14:46:56.654Z,28.00
2018-06-29T14:49:24.847Z,28.30
2018-06-29T14:51:52.996Z,28.20
2018-06-29T14:54:21.258Z,28.50
2018-06-29T14:56:49.453Z,28.70
2018-06-29T14:59:17.583Z,29.10
2018-06-29T15:01:45.716Z,29.30
2018-06-29T15:04:13.855Z,29.30
2018-06-29T15:06:43.411Z,29.50
2018-06-29T15:14:07.920Z,29.80
2018-06-29T15:19:04.015Z,30.10
2018-06-29T15:21:32.347Z,30.30
2018-06-29T15:24:01.543Z,30.70
2018-06-29T15:26:29.823Z,31.10
2018-06-29T15:31:25.830Z,31.80
2018-06-29T15:33:53.951Z,32.20
2018-06-29T15:36:22.065Z,32.50
2018-06-29T15:38:50.164Z,33.00
2018-06-29T15:41:18.267Z,33.70
2018-06-29T15:43:46.374Z,33.90
2018-06-29T15:46:14.465Z,34.40
2018-06-29T15:48:42.675Z,34.30
2018-06-29T15:51:10.772Z,35.50
2018-06-29T15:53:38.867Z,37.10
2018-06-29T15:56:06.951Z,35.90
2018-06-29T15:58:35.046Z,36.00
2018-06-29T16:01:03.258Z,37.20
2018-06-29T16:03:31.459Z,37.70
2018-06-29T16:05:59.547Z,39.00
2018-06-29T16:08:28.288Z,42.40
2018-06-29T16:10:56.403Z,47.00
2018-06-29T16:13:24.511Z,47.70
2018-06-29T16:15:52.648Z,48.60
2018-06-29T16:18:20.778Z,49.60
2018-06-29T16:20:48.889Z,50.40
2018-06-29T16:23:16.992Z,49.00
2018-06-29T16:25:45.082Z,50.10
2018-06-29T16:28:13.181Z,47.60
2018-06-29T16:30:41.280Z,45.70
2018-06-29T16:33:09.402Z,44.50
2018-06-29T16:40:33.238Z,42.90
2018-06-29T16:43:01.333Z,42.70
2018-06-29T16:45:29.459Z,42.50
2018-06-29T16:47:57.559Z,42.40
2018-06-29T16:50:25.730Z,42.50
2018-06-29T16:52:53.770Z,42.40
2018-06-29T16:57:49.779Z,43.00
2018-06-29T17:00:17.880Z,43.20
2018-06-29T17:02:45.975Z,43.60
2018-06-29T17:05:14.092Z,44.00
2018-06-29T17:07:42.190Z,44.00
2018-06-29T17:10:10.275Z,44.30
2018-06-29T17:15:06.639Z,43.50
2018-06-29T17:20:02.608Z,43.60
2018-06-29T17:22:30.721Z,44.10
2018-06-29T17:24:58.794Z,43.80
2018-06-29T17:27:26.900Z,44.50
2018-06-29T17:29:54.991Z,44.90
2018-06-29T17:32:23.095Z,45.10
2018-06-29T17:34:51.180Z,45.40
2018-06-29T17:37:19.252Z,45.70
2018-06-29T17:39:47.358Z,46.20
2018-06-29T17:44:43.368Z,46.70
2018-06-29T17:47:11.466Z,46.80
2018-06-29T17:49:39.575Z,46.90
2018-06-29T17:52:07.677Z,46.90
2018-06-29T17:54:35.801Z,47.50
2018-06-29T17:57:03.904Z,47.20
2018-06-29T17:59:31.995Z,47.10
2018-06-29T18:02:00.180Z,47.50
2018-06-29T18:04:28.308Z,47.10
2018-06-29T18:06:56.481Z,46.80
2018-06-29T18:09:24.574Z,46.80
2018-06-29T18:11:52.693Z,46.80
2018-06-29T18:14:20.784Z,47.10
2018-06-29T18:16:48.875Z,47.40
2018-06-29T18:19:16.987Z,47.20
2018-06-29T18:21:45.124Z,46.70
2018-06-29T18:24:13.212Z,46.00
2018-06-29T18:26:41.332Z,45.60
2018-06-29T18:29:09.443Z,45.20
2018-06-29T18:31:37.520Z,44.80
2018-06-29T18:34:05.802Z,44.60
2018-06-29T18:36:33.922Z,44.40
2018-06-29T18:39:02.031Z,44.20
2018-06-29T18:41:30.168Z,44.10
2018-06-29T18:43:58.224Z,43.90
2018-06-29T18:46:26.303Z,43.80
2018-06-29T18:48:54.402Z,43.70
2018-06-29T18:51:22.499Z,43.70
2018-06-29T18:53:51.129Z,43.60
2018-06-29T18:56:19.262Z,43.50
2018-06-29T18:58:47.371Z,43.40
2018-06-29T19:01:15.532Z,43.40
2018-06-29T19:03:43.608Z,43.30
2018-06-29T19:06:11.704Z,43.30
2018-06-29T19:08:39.837Z,43.30
2018-06-29T19:11:07.920Z,43.30
2018-06-29T19:13:36.011Z,43.30
2018-06-29T19:16:04.135Z,43.30
2018-06-29T19:18:32.281Z,43.40
2018-06-29T19:21:00.328Z,43.30
2018-06-29T19:23:28.410Z,43.30
2018-06-29T19:25:56.533Z,43.30
2018-06-29T19:28:24.631Z,43.20
2018-06-29T19:30:52.727Z,43.30
2018-06-29T19:33:20.843Z,43.30
2018-06-29T19:35:48.971Z,43.30
2018-06-29T19:38:17.063Z,43.20
2018-06-29T19:40:45.291Z,43.30
2018-06-29T19:43:13.370Z,43.20
2018-06-29T19:45:41.475Z,43.20
2018-06-29T19:48:09.851Z,43.20
2018-06-29T19:50:37.989Z,43.20
2018-06-29T19:53:06.346Z,44.50
2018-06-29T19:55:34.432Z,45.30
2018-06-29T19:58:02.537Z,45.50
2018-06-29T20:00:30.662Z,45.70
2018-06-29T20:02:58.733Z,46.00
2018-06-29T20:05:27.829Z,46.10
2018-06-29T20:07:56.920Z,46.00
2018-06-29T20:10:25.021Z,46.10
2018-06-29T20:12:53.117Z,46.20
2018-06-29T20:15:21.199Z,46.00
2018-06-29T20:20:17.277Z,45.90
2018-06-29T20:22:45.291Z,46.00
2018-06-29T20:25:13.391Z,46.10
2018-06-29T20:27:41.494Z,45.90
2018-06-29T20:30:09.946Z,46.00
2018-06-29T20:35:06.195Z,46.20
2018-06-29T20:37:34.299Z,46.20
2018-06-29T20:40:02.398Z,46.20
2018-06-29T20:42:30.496Z,46.40
2018-06-29T20:44:58.644Z,46.20
2018-06-29T20:47:26.869Z,46.20
2018-06-29T20:52:22.850Z,46.70
2018-06-29T20:54:50.952Z,46.30
2018-06-29T20:57:19.041Z,46.30
2018-06-29T20:59:47.145Z,46.30
2018-06-29T21:02:15.242Z,46.30
2018-06-29T21:04:43.343Z,46.30
2018-06-29T21:07:11.426Z,46.40
2018-06-29T21:14:35.295Z,46.30
2018-06-29T21:17:03.425Z,46.40
2018-06-29T21:21:59.384Z,46.70
2018-06-29T21:24:27.485Z,46.80
2018-06-29T21:26:55.579Z,46.80
2018-06-29T21:29:23.677Z,47.50
2018-06-29T21:34:19.676Z,46.90
2018-06-29T21:36:47.767Z,47.00
2018-06-29T21:39:15.866Z,47.00
2018-06-29T21:41:43.963Z,47.20
2018-06-29T21:44:12.039Z,46.60
2018-06-29T21:46:40.137Z,46.30
2018-06-29T21:49:08.251Z,46.20
2018-06-29T21:51:36.356Z,46.00
2018-06-29T21:54:04.448Z,46.10
2018-06-29T21:56:32.520Z,46.30
2018-06-29T21:59:00.591Z,46.10
2018-06-29T22:01:28.693Z,46.00
2018-06-29T22:03:56.770Z,46.30
2018-06-29T22:06:24.852Z,46.20
2018-06-29T22:11:20.823Z,45.60
2018-06-29T22:13:48.907Z,45.40
2018-06-29T22:16:16.992Z,46.20
2018-06-29T22:18:45.076Z,45.80
2018-06-29T22:21:13.291Z,45.40
2018-06-29T22:23:41.387Z,45.20
2018-06-29T22:26:09.479Z,44.60
2018-06-29T22:28:37.567Z,44.10
2018-06-29T22:31:05.658Z,43.80
2018-06-29T22:33:33.743Z,43.60
2018-06-29T22:36:01.848Z,43.00
2018-06-29T22:38:29.928Z,43.70
2018-06-29T22:40:58.004Z,43.00
2018-06-29T22:43:26.330Z,42.20
2018-06-29T22:45:54.417Z,42.20
2018-06-29T22:50:50.379Z,42.20
2018-06-29T22:53:18.455Z,42.20
2018-06-29T22:55:46.536Z,41.60
2018-06-29T22:58:14.618Z,41.20
2018-06-29T23:00:42.692Z,41.10
2018-06-29T23:03:12.028Z,40.70
2018-06-29T23:05:40.115Z,40.60
2018-06-29T23:08:09.612Z,40.60
2018-06-29T23:10:37.987Z,40.40
2018-06-29T23:13:06.652Z,40.20
2018-06-29T23:15:34.772Z,39.90
2018-06-29T23:18:02.886Z,39.80
2018-06-29T23:20:30.987Z,39.90
2018-06-29T23:22:59.067Z,39.80
2018-06-29T23:25:27.147Z,39.80
2018-06-29T23:27:55.252Z,39.80
2018-06-29T23:30:23.343Z,39.90
2018-06-29T23:32:51.455Z,40.00
2018-06-29T23:35:19.523Z,39.70
2018-06-29T23:37:47.615Z,39.80
2018-06-29T23:40:15.691Z,39.80
2018-06-29T23:42:43.788Z,39.90
2018-06-29T23:45:11.937Z,39.70
2018-06-29T23:47:40.039Z,39.60
2018-06-29T23:50:08.126Z,39.50
2018-06-29T23:52:36.222Z,39.30
2018-06-29T23:55:04.311Z,39.80
2018-06-29T23:57:32.399Z,39.90
